Time;durP1;ratioP1;P1;durP2;ratioP2;P2;SDS_P1;SDS_P2;PMS_P1;PMS_P2;Temp;Humidity;BMP_temperature;BMP_pressure;BME280_temperature;BME280_humidity;BME280_pressure;Samples;Min_cycle;Max_cycle;Signal;HPM_P1;HPM_P2
2023/07/14 00:00:38;;;;;;;0.80;0.80;;;;;;;;;;5048077;28;20227;-59
2023/07/14 00:03:06;;;;;;;0.75;0.70;;;;;;;;;;5065025;28;20226;-59
2023/07/14 00:05:35;;;;;;;1.48;0.88;;;;;;;;;;5049848;28;20246;-59
2023/07/14 00:08:03;;;;;;;1.10;1.00;;;;;;;;;;5060943;28;20243;-59
2023/07/14 00:10:32;;;;;;;0.90;0.90;;;;;;;;;;5058038;28;20211;-59
2023/07/14 00:13:00;;;;;;;1.00;1.00;;;;;;;;;;5057577;28;20269;-60
2023/07/14 00:15:27;;;;;;;0.90;0.90;;;;;;;;;;5045987;28;20655;-60
2023/07/14 00:17:57;;;;;;;1.02;1.00;;;;;;;;;;5062989;28;20586;-60
2023/07/14 00:20:26;;;;;;;1.08;1.00;;;;;;;;;;5064327;28;20219;-60
2023/07/14 00:22:53;;;;;;;1.00;1.00;;;;;;;;;;5064606;28;20314;-59
2023/07/14 00:25:22;;;;;;;0.90;0.90;;;;;;;;;;5069019;28;20211;-59
2023/07/14 00:27:49;;;;;;;1.00;1.00;;;;;;;;;;5060759;28;20206;-60
2023/07/14 00:30:18;;;;;;;0.77;0.77;;;;;;;;;;5049876;28;20192;-60
2023/07/14 00:32:45;;;;;;;1.10;1.10;;;;;;;;;;5063163;28;20199;-59
2023/07/14 00:35:21;;;;;;;0.70;0.70;;;;;;;;;;5052176;28;20214;-59
2023/07/14 00:37:48;;;;;;;2.25;0.82;;;;;;;;;;5065314;28;20234;-60
2023/07/14 00:40:17;;;;;;;0.73;0.68;;;;;;;;;;5069636;28;20256;-59
2023/07/14 00:42:44;;;;;;;1.30;1.20;;;;;;;;;;5067641;28;20735;-59
2023/07/14 00:45:12;;;;;;;1.23;1.23;;;;;;;;;;5052549;28;20428;-60
2023/07/14 00:47:39;;;;;;;1.05;0.90;;;;;;;;;;5063279;28;20214;-60
2023/07/14 00:50:07;;;;;;;8.27;0.88;;;;;;;;;;5068872;28;20214;-59
2023/07/14 00:52:38;;;;;;;0.93;0.80;;;;;;;;;;5069343;28;20571;-59
2023/07/14 00:55:20;;;;;;;1.35;1.08;;;;;;;;;;5056922;28;20235;-59
2023/07/14 00:57:47;;;;;;;1.75;0.75;;;;;;;;;;5063167;28;20219;-60
2023/07/14 01:00:20;;;;;;;0.90;0.90;;;;;;;;;;5060933;28;20224;-60
2023/07/14 01:02:47;;;;;;;1.58;0.75;;;;;;;;;;5062166;28;20988;-59
2023/07/14 01:05:14;;;;;;;0.88;0.88;;;;;;;;;;5068219;28;20211;-60
2023/07/14 01:07:44;;;;;;;1.60;0.93;;;;;;;;;;5066489;28;20214;-60
2023/07/14 01:10:13;;;;;;;1.20;0.85;;;;;;;;;;5069659;28;20272;-60
2023/07/14 01:12:43;;;;;;;1.30;1.20;;;;;;;;;;5054787;28;20226;-59
2023/07/14 01:15:10;;;;;;;0.77;0.77;;;;;;;;;;5057270;28;20627;-59
2023/07/14 01:17:38;;;;;;;0.90;0.90;;;;;;;;;;5049589;28;20718;-59
2023/07/14 01:20:08;;;;;;;1.13;1.08;;;;;;;;;;5062228;28;20238;-60
2023/07/14 01:22:37;;;;;;;0.80;0.80;;;;;;;;;;5061699;28;20217;-59
2023/07/14 01:25:10;;;;;;;0.90;0.90;;;;;;;;;;5054269;28;20674;-59
2023/07/14 01:27:38;;;;;;;2.85;1.00;;;;;;;;;;5053047;28;20242;-59
2023/07/14 01:30:06;;;;;;;1.05;1.05;;;;;;;;;;5054464;28;20204;-59
2023/07/14 01:32:36;;;;;;;0.90;0.90;;;;;;;;;;5060149;28;20239;-59
2023/07/14 01:35:05;;;;;;;0.82;0.82;;;;;;;;;;5063895;28;20211;-60
2023/07/14 01:37:35;;;;;;;0.90;0.90;;;;;;;;;;5056789;28;20286;-59
2023/07/14 01:40:02;;;;;;;0.93;0.75;;;;;;;;;;5059179;28;20214;-59
2023/07/14 01:42:29;;;;;;;1.00;1.00;;;;;;;;;;5065094;28;20235;-60
2023/07/14 01:44:58;;;;;;;1.40;0.80;;;;;;;;;;5066059;28;20210;-59
2023/07/14 01:47:25;;;;;;;1.67;1.05;;;;;;;;;;5065742;28;20206;-59
2023/07/14 01:49:53;;;;;;;1.35;0.82;;;;;;;;;;5052133;28;20204;-59
2023/07/14 01:52:22;;;;;;;0.95;0.95;;;;;;;;;;5055812;28;20206;-59
2023/07/14 01:54:50;;;;;;;2.42;0.95;;;;;;;;;;5057767;28;20207;-59
2023/07/14 01:57:19;;;;;;;0.85;0.68;;;;;;;;;;5048741;28;20203;-60
2023/07/14 01:59:48;;;;;;;0.80;0.80;;;;;;;;;;5046761;28;20203;-59
2023/07/14 02:02:18;;;;;;;2.08;0.80;;;;;;;;;;5044680;28;20231;-59
2023/07/14 02:04:46;;;;;;;0.73;0.73;;;;;;;;;;5048827;28;20206;-60
2023/07/14 02:07:14;;;;;;;1.02;0.68;;;;;;;;;;5067582;28;20203;-59
2023/07/14 02:09:42;;;;;;;0.80;0.80;;;;;;;;;;5067892;28;20203;-59
2023/07/14 02:12:13;;;;;;;0.80;0.80;;;;;;;;;;5048786;28;20689;-60
2023/07/14 02:14:46;;;;;;;0.90;0.90;;;;;;;;;;5056957;28;20247;-59
2023/07/14 02:17:25;;;;;;;0.70;0.70;;;;;;;;;;5065861;28;20242;-60
2023/07/14 02:19:54;;;;;;;1.13;1.13;;;;;;;;;;5047275;28;20265;-60
2023/07/14 02:22:23;;;;;;;1.10;0.80;;;;;;;;;;5048167;28;20321;-59
2023/07/14 02:24:50;;;;;;;0.70;0.70;;;;;;;;;;5053322;28;20207;-59
2023/07/14 02:27:17;;;;;;;0.80;0.80;;;;;;;;;;5048477;28;20215;-60
2023/07/14 02:29:47;;;;;;;0.80;0.80;;;;;;;;;;5057677;28;20215;-59
2023/07/14 02:32:19;;;;;;;1.27;0.90;;;;;;;;;;5057061;28;20229;-59
2023/07/14 02:34:51;;;;;;;0.85;0.73;;;;;;;;;;5056040;28;20211;-59
2023/07/14 02:37:43;;;;;;;1.02;1.00;;;;;;;;;;5060477;28;20258;-59
2023/07/14 02:40:13;;;;;;;0.70;0.70;;;;;;;;;;5057412;28;20204;-60
2023/07/14 02:42:40;;;;;;;1.17;0.93;;;;;;;;;;5051582;28;20589;-60
2023/07/14 02:45:08;;;;;;;1.33;0.93;;;;;;;;;;5057484;28;20302;-60
2023/07/14 02:47:36;;;;;;;0.77;0.77;;;;;;;;;;5046491;28;20210;-60
2023/07/14 02:50:03;;;;;;;2.13;1.20;;;;;;;;;;5047312;28;20234;-60
2023/07/14 02:52:30;;;;;;;1.10;1.00;;;;;;;;;;5047527;28;20215;-59
2023/07/14 02:54:57;;;;;;;0.95;0.95;;;;;;;;;;5053052;28;20203;-59
2023/07/14 02:57:25;;;;;;;1.00;1.00;;;;;;;;;;5046686;28;20215;-60
2023/07/14 02:59:52;;;;;;;0.75;0.75;;;;;;;;;;5057487;28;20216;-60
2023/07/14 03:02:19;;;;;;;1.00;1.00;;;;;;;;;;5063896;28;20227;-59
2023/07/14 03:04:47;;;;;;;1.30;0.90;;;;;;;;;;5063810;28;20705;-59
2023/07/14 03:07:14;;;;;;;1.67;0.95;;;;;;;;;;5059279;28;20655;-59
2023/07/14 03:09:41;;;;;;;0.88;0.88;;;;;;;;;;5061740;28;20257;-59
2023/07/14 03:12:08;;;;;;;1.00;1.00;;;;;;;;;;5065519;28;20422;-59
2023/07/14 03:14:37;;;;;;;0.90;0.90;;;;;;;;;;5062931;28;20210;-60
2023/07/14 03:17:04;;;;;;;0.90;0.90;;;;;;;;;;5057583;28;20235;-59
2023/07/14 03:19:31;;;;;;;0.82;0.82;;;;;;;;;;5047916;28;20219;-60
2023/07/14 03:21:58;;;;;;;3.30;1.10;;;;;;;;;;5062372;28;20252;-59
2023/07/14 03:24:25;;;;;;;0.73;0.73;;;;;;;;;;5057737;28;20566;-59
2023/07/14 03:26:52;;;;;;;0.77;0.77;;;;;;;;;;5058997;28;20210;-60
2023/07/14 03:29:19;;;;;;;0.63;0.63;;;;;;;;;;5061050;28;20227;-59
2023/07/14 03:31:47;;;;;;;2.10;0.90;;;;;;;;;;5062576;28;20199;-59
2023/07/14 03:34:16;;;;;;;0.70;0.70;;;;;;;;;;5054430;28;20246;-59
2023/07/14 03:36:43;;;;;;;0.73;0.73;;;;;;;;;;5051597;28;20222;-60
2023/07/14 03:39:21;;;;;;;1.88;1.10;;;;;;;;;;5066501;28;20211;-60
2023/07/14 03:41:48;;;;;;;1.00;1.00;;;;;;;;;;5052134;28;20269;-59
2023/07/14 03:44:15;;;;;;;2.15;1.05;;;;;;;;;;5066542;28;20586;-59
2023/07/14 03:46:42;;;;;;;0.90;0.90;;;;;;;;;;5065915;28;20199;-60
2023/07/14 03:49:10;;;;;;;0.75;0.75;;;;;;;;;;5048210;28;20207;-59
2023/07/14 03:51:37;;;;;;;0.70;0.70;;;;;;;;;;5047315;28;20218;-61
2023/07/14 03:54:05;;;;;;;0.80;0.80;;;;;;;;;;5055997;28;20210;-60
2023/07/14 03:56:32;;;;;;;0.90;0.90;;;;;;;;;;5066240;28;20199;-59
2023/07/14 03:58:59;;;;;;;1.13;0.93;;;;;;;;;;5061970;28;20583;-60
2023/07/14 04:01:26;;;;;;;1.35;1.17;;;;;;;;;;5070620;28;20223;-60
2023/07/14 04:03:53;;;;;;;0.80;0.80;;;;;;;;;;5070559;28;20247;-60
2023/07/14 04:06:22;;;;;;;1.30;1.20;;;;;;;;;;5071028;28;20214;-59
2023/07/14 04:08:52;;;;;;;1.10;1.10;;;;;;;;;;5062156;28;20235;-59
2023/07/14 04:11:19;;;;;;;0.90;0.90;;;;;;;;;;5060285;28;20206;-60
2023/07/14 04:13:46;;;;;;;1.83;1.23;;;;;;;;;;5068507;28;20211;-62
2023/07/14 04:16:13;;;;;;;1.00;1.00;;;;;;;;;;5050542;28;21107;-59
2023/07/14 04:18:40;;;;;;;1.00;1.00;;;;;;;;;;5056024;28;20215;-60
2023/07/14 04:21:08;;;;;;;0.90;0.90;;;;;;;;;;5050912;28;20238;-59
2023/07/14 04:23:36;;;;;;;0.88;0.88;;;;;;;;;;5052345;28;20212;-59
2023/07/14 04:26:04;;;;;;;1.17;1.05;;;;;;;;;;5069807;28;20207;-59
2023/07/14 04:28:31;;;;;;;1.20;1.05;;;;;;;;;;5061545;28;20214;-59
2023/07/14 04:31:00;;;;;;;1.00;1.00;;;;;;;;;;5057520;28;20238;-60
2023/07/14 04:33:27;;;;;;;1.13;1.13;;;;;;;;;;5057595;28;20207;-59
2023/07/14 04:35:55;;;;;;;0.70;0.70;;;;;;;;;;5067047;28;20210;-59
2023/07/14 04:38:23;;;;;;;0.80;0.80;;;;;;;;;;5060676;28;20674;-60
2023/07/14 04:40:52;;;;;;;1.05;1.00;;;;;;;;;;5059410;28;20697;-60
2023/07/14 04:43:19;;;;;;;0.80;0.80;;;;;;;;;;5061820;28;20227;-60
2023/07/14 04:45:47;;;;;;;0.80;0.77;;;;;;;;;;5063169;28;20209;-60
2023/07/14 04:48:14;;;;;;;1.10;1.08;;;;;;;;;;5067139;28;20211;-60
2023/07/14 04:50:41;;;;;;;1.30;1.00;;;;;;;;;;5059436;28;20212;-60
2023/07/14 04:53:09;;;;;;;0.80;0.80;;;;;;;;;;5062341;28;20210;-60
2023/07/14 04:55:37;;;;;;;1.23;1.23;;;;;;;;;;5067871;28;20207;-60
2023/07/14 04:58:06;;;;;;;1.52;0.88;;;;;;;;;;5059440;28;20235;-60
2023/07/14 05:00:33;;;;;;;2.25;0.82;;;;;;;;;;5048082;28;20303;-60
2023/07/14 05:03:00;;;;;;;0.90;0.90;;;;;;;;;;5047159;28;20236;-60
2023/07/14 05:05:27;;;;;;;3.60;1.02;;;;;;;;;;5050041;28;20265;-59
2023/07/14 05:07:55;;;;;;;1.42;1.15;;;;;;;;;;5057681;28;20215;-60
2023/07/14 05:10:23;;;;;;;1.52;0.90;;;;;;;;;;5055314;28;20257;-60
2023/07/14 05:12:51;;;;;;;1.38;1.05;;;;;;;;;;5050740;28;20207;-60
2023/07/14 05:15:20;;;;;;;2.58;1.02;;;;;;;;;;5059180;28;20249;-60
2023/07/14 05:17:47;;;;;;;0.70;0.70;;;;;;;;;;5068872;28;20204;-59
2023/07/14 05:20:15;;;;;;;1.10;1.10;;;;;;;;;;5059209;28;20773;-59
2023/07/14 05:22:43;;;;;;;0.90;0.90;;;;;;;;;;5066948;28;20223;-59
2023/07/14 05:25:10;;;;;;;1.48;1.10;;;;;;;;;;5064243;28;20575;-58
2023/07/14 05:27:38;;;;;;;1.55;1.00;;;;;;;;;;5059767;28;20269;-58
2023/07/14 05:30:05;;;;;;;1.25;1.10;;;;;;;;;;5053432;28;20236;-58
2023/07/14 05:32:34;;;;;;;1.48;0.80;;;;;;;;;;5052751;28;20203;-58
2023/07/14 05:35:01;;;;;;;0.88;0.88;;;;;;;;;;5065531;28;20199;-57
2023/07/14 05:37:28;;;;;;;1.35;1.23;;;;;;;;;;5063521;28;20227;-58
2023/07/14 05:39:55;;;;;;;0.95;0.95;;;;;;;;;;5068540;28;20221;-58
2023/07/14 05:42:22;;;;;;;1.67;1.05;;;;;;;;;;5062340;28;20223;-57
2023/07/14 05:44:50;;;;;;;2.15;0.88;;;;;;;;;;5050283;28;20235;-57
2023/07/14 05:47:17;;;;;;;1.60;0.90;;;;;;;;;;5048132;28;20226;-58
2023/07/14 05:49:45;;;;;;;1.85;0.93;;;;;;;;;;5047583;28;20222;-57
2023/07/14 05:52:12;;;;;;;1.40;1.35;;;;;;;;;;5046773;28;20208;-58
2023/07/14 05:54:39;;;;;;;1.40;1.35;;;;;;;;;;5048149;28;20717;-57
2023/07/14 05:57:07;;;;;;;1.10;1.10;;;;;;;;;;5048153;28;20215;-57
2023/07/14 05:59:34;;;;;;;1.02;0.93;;;;;;;;;;5048106;28;20207;-58
2023/07/14 06:02:01;;;;;;;5.75;1.10;;;;;;;;;;5048070;28;20641;-57
2023/07/14 06:04:29;;;;;;;1.00;0.80;;;;;;;;;;5048019;28;20219;-58
2023/07/14 06:06:57;;;;;;;1.00;1.00;;;;;;;;;;5052591;28;20286;-58
2023/07/14 06:09:24;;;;;;;1.17;1.17;;;;;;;;;;5067629;28;20773;-59
2023/07/14 06:11:51;;;;;;;1.00;1.00;;;;;;;;;;5063659;28;20211;-58
2023/07/14 06:14:18;;;;;;;1.60;1.20;;;;;;;;;;5056329;28;20665;-58
2023/07/14 06:16:45;;;;;;;4.57;1.00;;;;;;;;;;5067832;28;20243;-59
2023/07/14 06:19:12;;;;;;;1.23;1.23;;;;;;;;;;5062705;28;20199;-58
2023/07/14 06:21:39;;;;;;;1.00;1.00;;;;;;;;;;5058197;28;20231;-59
2023/07/14 06:24:09;;;;;;;2.35;1.40;;;;;;;;;;5048624;28;20242;-59
2023/07/14 06:26:36;;;;;;;1.17;0.98;;;;;;;;;;5051339;28;20303;-59
2023/07/14 06:29:03;;;;;;;1.23;0.90;;;;;;;;;;5060927;28;20208;-59
2023/07/14 06:31:30;;;;;;;0.93;0.93;;;;;;;;;;5055568;28;20752;-58
2023/07/14 06:33:57;;;;;;;1.10;1.10;;;;;;;;;;5068362;28;20222;-58
2023/07/14 06:36:24;;;;;;;0.90;0.90;;;;;;;;;;5063519;28;20215;-59
2023/07/14 06:38:51;;;;;;;0.82;0.82;;;;;;;;;;5062524;28;20210;-58
2023/07/14 06:41:20;;;;;;;1.25;1.15;;;;;;;;;;5049824;28;20592;-59
2023/07/14 06:43:47;;;;;;;1.00;0.90;;;;;;;;;;5057592;28;20219;-59
2023/07/14 06:46:14;;;;;;;3.45;1.17;;;;;;;;;;5048152;28;20231;-59
2023/07/14 06:48:41;;;;;;;1.00;1.00;;;;;;;;;;5048651;28;20198;-58
2023/07/14 06:51:08;;;;;;;1.10;1.10;;;;;;;;;;5048041;28;20212;-58
2023/07/14 06:53:35;;;;;;;4.50;0.85;;;;;;;;;;5061150;28;20634;-56
2023/07/14 06:56:02;;;;;;;0.90;0.90;;;;;;;;;;5062749;28;20215;-57
2023/07/14 06:58:31;;;;;;;1.50;1.02;;;;;;;;;;5047401;28;20326;-60
2023/07/14 07:00:58;;;;;;;1.20;1.20;;;;;;;;;;5055700;28;20199;-57
2023/07/14 07:03:25;;;;;;;2.67;1.15;;;;;;;;;;5058054;28;20235;-56
2023/07/14 07:05:53;;;;;;;0.93;0.93;;;;;;;;;;5050889;28;20207;-59
2023/07/14 07:08:20;;;;;;;1.30;0.90;;;;;;;;;;5065575;28;20736;-61
2023/07/14 07:10:48;;;;;;;1.48;1.15;;;;;;;;;;5067058;28;20203;-59
2023/07/14 07:13:15;;;;;;;1.05;1.00;;;;;;;;;;5061965;28;20245;-59
2023/07/14 07:15:44;;;;;;;0.90;0.90;;;;;;;;;;5059619;28;20618;-59
2023/07/14 07:18:11;;;;;;;0.98;0.90;;;;;;;;;;5043919;28;20227;-59
2023/07/14 07:20:38;;;;;;;0.70;0.70;;;;;;;;;;5060636;28;20215;-60
2023/07/14 07:23:05;;;;;;;2.17;0.95;;;;;;;;;;5051659;28;20226;-60
2023/07/14 07:25:32;;;;;;;1.23;0.80;;;;;;;;;;5064910;28;20214;-60
2023/07/14 07:27:59;;;;;;;1.08;0.90;;;;;;;;;;5065886;28;20226;-60
2023/07/14 07:30:26;;;;;;;0.73;0.73;;;;;;;;;;5064761;28;20210;-60
2023/07/14 07:32:55;;;;;;;4.63;1.40;;;;;;;;;;5058742;28;20226;-57
2023/07/14 07:35:22;;;;;;;0.80;0.80;;;;;;;;;;5051191;28;20594;-58
2023/07/14 07:37:49;;;;;;;0.90;0.90;;;;;;;;;;5051036;28;20200;-58
2023/07/14 07:40:16;;;;;;;0.98;0.98;;;;;;;;;;5050796;28;20215;-63
2023/07/14 07:42:43;;;;;;;0.90;0.90;;;;;;;;;;5057272;28;20235;-62
2023/07/14 07:45:10;;;;;;;0.63;0.63;;;;;;;;;;5046893;28;20206;-62
2023/07/14 07:47:38;;;;;;;0.88;0.88;;;;;;;;;;5057894;28;20424;-63
2023/07/14 07:50:07;;;;;;;0.65;0.65;;;;;;;;;;5069193;28;20199;-62
2023/07/14 07:52:34;;;;;;;2.20;0.93;;;;;;;;;;5070643;28;20570;-62
2023/07/14 07:55:01;;;;;;;0.85;0.73;;;;;;;;;;5064550;28;20214;-64
2023/07/14 07:57:29;;;;;;;0.93;0.63;;;;;;;;;;5053263;28;20220;-62
2023/07/14 07:59:56;;;;;;;0.52;0.52;;;;;;;;;;5049170;28;20231;-62
2023/07/14 08:02:23;;;;;;;0.73;0.73;;;;;;;;;;5059306;28;20266;-62
2023/07/14 08:04:51;;;;;;;1.70;0.60;;;;;;;;;;5056429;28;20665;-62
2023/07/14 08:07:19;;;;;;;2.05;0.88;;;;;;;;;;5060040;28;20626;-62
2023/07/14 08:09:46;;;;;;;1.63;0.80;;;;;;;;;;5054038;28;20195;-63
2023/07/14 08:12:13;;;;;;;0.85;0.85;;;;;;;;;;5058648;28;20203;-61
2023/07/14 08:14:58;;;;;;;0.55;0.55;;;;;;;;;;5049511;28;20208;-61
2023/07/14 08:17:25;;;;;;;0.50;0.50;;;;;;;;;;5049122;28;20685;-62
2023/07/14 08:19:53;;;;;;;1.27;1.00;;;;;;;;;;5049915;28;20231;-61
2023/07/14 08:22:22;;;;;;;3.58;0.88;;;;;;;;;;5051619;28;20230;-61
2023/07/14 08:24:49;;;;;;;0.70;0.70;;;;;;;;;;5049267;28;20318;-60
2023/07/14 08:27:16;;;;;;;0.95;0.75;;;;;;;;;;5049644;28;20211;-61
2023/07/14 08:29:43;;;;;;;1.30;0.75;;;;;;;;;;5057306;28;20241;-60
2023/07/14 08:32:10;;;;;;;0.60;0.60;;;;;;;;;;5068072;28;20264;-61
2023/07/14 08:34:37;;;;;;;0.75;0.75;;;;;;;;;;5069091;28;20222;-61
2023/07/14 08:37:05;;;;;;;0.60;0.60;;;;;;;;;;5069556;28;20666;-61
2023/07/14 08:39:34;;;;;;;0.60;0.60;;;;;;;;;;5069667;28;20268;-61
2023/07/14 08:42:07;;;;;;;0.75;0.75;;;;;;;;;;5058324;28;20208;-64
2023/07/14 08:44:46;;;;;;;0.70;0.70;;;;;;;;;;5049626;28;20212;-60
2023/07/14 08:47:16;;;;;;;0.70;0.70;;;;;;;;;;5053077;28;20198;-63
2023/07/14 08:49:48;;;;;;;1.05;0.75;;;;;;;;;;5069446;28;20891;-61
2023/07/14 08:52:18;;;;;;;0.70;0.70;;;;;;;;;;5059713;28;20302;-61
2023/07/14 08:54:49;;;;;;;0.80;0.75;;;;;;;;;;5059884;28;20210;-61
2023/07/14 08:57:17;;;;;;;0.95;0.80;;;;;;;;;;5069391;28;20215;-62
2023/07/14 08:59:46;;;;;;;1.08;0.60;;;;;;;;;;5048773;28;20219;-62
2023/07/14 09:02:19;;;;;;;0.73;0.73;;;;;;;;;;5047324;28;20720;-62
2023/07/14 09:04:51;;;;;;;0.70;0.70;;;;;;;;;;5061424;28;20234;-62
2023/07/14 09:07:18;;;;;;;2.45;0.52;;;;;;;;;;5049538;28;20218;-62
2023/07/14 09:09:45;;;;;;;0.60;0.60;;;;;;;;;;5061454;28;20206;-61
2023/07/14 09:12:18;;;;;;;0.63;0.63;;;;;;;;;;5067101;28;20652;-62
2023/07/14 09:14:55;;;;;;;1.85;1.00;;;;;;;;;;5061136;28;20203;-61
2023/07/14 09:17:26;;;;;;;0.57;0.57;;;;;;;;;;5053216;28;20267;-60
2023/07/14 09:20:06;;;;;;;1.60;0.57;;;;;;;;;;5049711;28;20212;-61
2023/07/14 09:22:37;;;;;;;0.70;0.70;;;;;;;;;;5067823;28;20230;-60
2023/07/14 09:25:06;;;;;;;0.80;0.80;;;;;;;;;;5069584;28;20260;-61
2023/07/14 09:27:34;;;;;;;1.60;1.50;;;;;;;;;;5059980;28;20226;-61
2023/07/14 09:30:04;;;;;;;0.90;0.80;;;;;;;;;;5059517;28;20813;-60
2023/07/14 09:32:34;;;;;;;0.60;0.60;;;;;;;;;;5049346;28;20215;-60
2023/07/14 09:35:04;;;;;;;1.00;0.70;;;;;;;;;;5061496;28;20966;-61
2023/07/14 09:37:34;;;;;;;0.80;0.80;;;;;;;;;;5060026;28;20207;-59
2023/07/14 09:40:17;;;;;;;0.60;0.60;;;;;;;;;;5059434;28;20207;-58
2023/07/14 09:42:47;;;;;;;0.85;0.85;;;;;;;;;;5048908;28;20678;-58
2023/07/14 09:45:19;;;;;;;1.60;1.10;;;;;;;;;;5062932;28;20198;-58
2023/07/14 09:47:47;;;;;;;3.53;0.70;;;;;;;;;;5048993;28;20224;-58
2023/07/14 09:50:16;;;;;;;0.63;0.63;;;;;;;;;;5049241;28;20215;-58
2023/07/14 09:52:54;;;;;;;0.60;0.60;;;;;;;;;;5053252;28;20401;-58
2023/07/14 09:55:21;;;;;;;0.73;0.73;;;;;;;;;;5063802;28;20217;-58
2023/07/14 09:57:52;;;;;;;7.72;0.90;;;;;;;;;;5049954;28;20207;-58
2023/07/14 10:00:20;;;;;;;1.50;0.88;;;;;;;;;;5060294;28;20211;-58
2023/07/14 10:02:50;;;;;;;3.00;0.80;;;;;;;;;;5053884;28;20319;-58
2023/07/14 10:05:27;;;;;;;0.80;0.80;;;;;;;;;;5048678;28;20261;-58
2023/07/14 10:07:54;;;;;;;0.70;0.70;;;;;;;;;;5049414;28;20736;-59
2023/07/14 10:10:25;;;;;;;0.70;0.70;;;;;;;;;;5053249;28;20209;-59
2023/07/14 10:12:54;;;;;;;1.27;0.63;;;;;;;;;;5068609;28;20211;-58
2023/07/14 10:15:26;;;;;;;0.75;0.75;;;;;;;;;;5068459;28;20207;-59
2023/07/14 10:17:53;;;;;;;0.77;0.77;;;;;;;;;;5068696;28;20245;-59
2023/07/14 10:20:21;;;;;;;0.80;0.80;;;;;;;;;;5068652;28;20771;-59
2023/07/14 10:22:50;;;;;;;0.55;0.55;;;;;;;;;;5055768;28;20209;-60
2023/07/14 10:25:18;;;;;;;1.27;0.82;;;;;;;;;;5047218;28;20204;-60
2023/07/14 10:27:53;;;;;;;0.60;0.60;;;;;;;;;;5048384;28;20218;-60
2023/07/14 10:30:27;;;;;;;0.80;0.77;;;;;;;;;;5060134;28;20332;-59
2023/07/14 10:32:55;;;;;;;0.60;0.60;;;;;;;;;;5067659;28;20229;-60
2023/07/14 10:35:24;;;;;;;0.60;0.60;;;;;;;;;;5057161;28;20203;-59
2023/07/14 10:37:55;;;;;;;0.70;0.68;;;;;;;;;;5056962;28;20210;-59
2023/07/14 10:40:24;;;;;;;4.10;0.82;;;;;;;;;;5059293;28;20667;-59
2023/07/14 10:42:54;;;;;;;1.85;0.50;;;;;;;;;;5049065;28;20223;-58
2023/07/14 10:45:22;;;;;;;0.60;0.60;;;;;;;;;;5050963;28;20209;-58
2023/07/14 10:47:51;;;;;;;0.50;0.50;;;;;;;;;;5047613;28;20756;-58
2023/07/14 10:50:20;;;;;;;0.80;0.80;;;;;;;;;;5062143;28;20219;-58
2023/07/14 10:52:50;;;;;;;0.50;0.50;;;;;;;;;;5067827;28;20681;-59
2023/07/14 10:55:21;;;;;;;3.88;0.73;;;;;;;;;;5058966;28;20633;-64
2023/07/14 10:57:51;;;;;;;2.47;0.77;;;;;;;;;;5052267;28;20210;-61
2023/07/14 11:00:25;;;;;;;0.75;0.70;;;;;;;;;;5050537;28;20199;-59
2023/07/14 11:03:00;;;;;;;1.48;0.77;;;;;;;;;;5048605;28;20214;-61
2023/07/14 11:05:28;;;;;;;0.70;0.60;;;;;;;;;;5060736;28;20242;-60
2023/07/14 11:07:55;;;;;;;0.88;0.73;;;;;;;;;;5067225;28;20277;-61
2023/07/14 11:10:29;;;;;;;3.50;0.70;;;;;;;;;;5062918;28;20222;-61
2023/07/14 11:12:59;;;;;;;0.77;0.60;;;;;;;;;;5060525;28;20210;-62
2023/07/14 11:15:38;;;;;;;1.67;0.65;;;;;;;;;;5067624;28;20272;-61
2023/07/14 11:18:11;;;;;;;0.90;0.68;;;;;;;;;;5066230;28;20203;-62
2023/07/14 11:20:41;;;;;;;0.60;0.60;;;;;;;;;;5059999;28;20638;-60
2023/07/14 11:23:18;;;;;;;3.80;0.80;;;;;;;;;;5055175;28;20219;-62
2023/07/14 11:25:49;;;;;;;0.77;0.60;;;;;;;;;;5058035;28;20238;-63
2023/07/14 11:28:27;;;;;;;1.40;0.90;;;;;;;;;;5060256;28;20211;-61
2023/07/14 11:30:56;;;;;;;0.75;0.68;;;;;;;;;;5067423;28;20564;-61
2023/07/14 11:33:26;;;;;;;0.73;0.73;;;;;;;;;;5067341;28;20285;-62
2023/07/14 11:35:57;;;;;;;0.80;0.80;;;;;;;;;;5057853;28;20215;-62
2023/07/14 11:38:31;;;;;;;1.95;0.80;;;;;;;;;;5047367;28;20207;-58
2023/07/14 11:41:01;;;;;;;1.45;0.75;;;;;;;;;;5062382;28;20691;-59
2023/07/14 11:43:29;;;;;;;3.40;0.70;;;;;;;;;;5063104;28;20238;-59
2023/07/14 11:46:00;;;;;;;0.60;0.60;;;;;;;;;;5063860;28;20249;-59
2023/07/14 11:48:34;;;;;;;3.40;1.10;;;;;;;;;;5050565;28;20219;-58
2023/07/14 11:51:05;;;;;;;1.15;0.65;;;;;;;;;;5064588;28;20690;-59
2023/07/14 11:53:34;;;;;;;0.60;0.60;;;;;;;;;;5053982;28;20239;-58
2023/07/14 11:56:14;;;;;;;0.85;0.80;;;;;;;;;;5061068;28;20882;-58
2023/07/14 11:58:41;;;;;;;1.20;0.77;;;;;;;;;;5046118;28;20812;-60
2023/07/14 12:01:17;;;;;;;0.60;0.60;;;;;;;;;;5065001;28;20241;-58
2023/07/14 12:03:49;;;;;;;0.80;0.57;;;;;;;;;;5047652;28;20300;-60
2023/07/14 12:06:40;;;;;;;1.38;0.95;;;;;;;;;;5066120;28;20214;-58
2023/07/14 12:09:12;;;;;;;0.93;0.60;;;;;;;;;;5051494;28;20203;-59
2023/07/14 12:11:46;;;;;;;0.80;0.80;;;;;;;;;;5054804;28;20207;-58
2023/07/14 12:14:45;;;;;;;1.30;0.90;;;;;;;;;;5051080;28;20206;-61
2023/07/14 12:17:27;;;;;;;0.93;0.68;;;;;;;;;;5065147;28;20231;-59
2023/07/14 12:19:56;;;;;;;0.60;0.60;;;;;;;;;;5052576;28;20225;-59
2023/07/14 12:22:37;;;;;;;1.00;0.90;;;;;;;;;;5064714;28;20210;-60
2023/07/14 12:25:10;;;;;;;1.05;0.82;;;;;;;;;;5054573;28;20216;-59
2023/07/14 12:27:40;;;;;;;1.05;0.70;;;;;;;;;;5067372;28;20203;-59
2023/07/14 12:30:15;;;;;;;0.50;0.50;;;;;;;;;;5064637;28;20714;-59
2023/07/14 12:32:42;;;;;;;0.60;0.60;;;;;;;;;;5053914;28;20210;-59
2023/07/14 12:35:13;;;;;;;0.60;0.60;;;;;;;;;;5055808;28;20203;-59
2023/07/14 12:37:40;;;;;;;0.70;0.70;;;;;;;;;;5061253;28;20214;-59
2023/07/14 12:40:14;;;;;;;1.70;0.70;;;;;;;;;;5067585;28;20210;-59
2023/07/14 12:42:42;;;;;;;0.70;0.70;;;;;;;;;;5059082;28;20218;-59
2023/07/14 12:45:10;;;;;;;1.48;0.70;;;;;;;;;;5066775;28;20222;-60
2023/07/14 12:47:39;;;;;;;0.75;0.75;;;;;;;;;;5057403;28;20203;-62
2023/07/14 12:50:06;;;;;;;0.80;0.80;;;;;;;;;;5060130;28;20230;-62
2023/07/14 12:52:36;;;;;;;0.88;0.88;;;;;;;;;;5064206;28;20207;-63
2023/07/14 12:55:03;;;;;;;1.20;0.88;;;;;;;;;;5062356;28;20207;-62
2023/07/14 12:57:31;;;;;;;0.70;0.70;;;;;;;;;;5055976;28;20306;-62
2023/07/14 12:59:59;;;;;;;0.60;0.60;;;;;;;;;;5061157;28;20207;-62
2023/07/14 13:02:26;;;;;;;0.75;0.75;;;;;;;;;;5058237;28;20207;-60
2023/07/14 13:04:53;;;;;;;1.08;0.60;;;;;;;;;;5064635;28;20230;-59
2023/07/14 13:07:21;;;;;;;0.73;0.73;;;;;;;;;;5048108;28;20212;-60
2023/07/14 13:09:59;;;;;;;0.90;0.90;;;;;;;;;;5052232;28;20204;-61
2023/07/14 13:12:27;;;;;;;0.70;0.70;;;;;;;;;;5047563;28;20211;-66
2023/07/14 13:14:55;;;;;;;3.47;0.70;;;;;;;;;;5051826;28;20206;-59
2023/07/14 13:17:23;;;;;;;2.88;0.60;;;;;;;;;;5047520;28;20239;-58
2023/07/14 13:19:50;;;;;;;3.42;0.85;;;;;;;;;;5060857;28;20199;-60
2023/07/14 13:22:20;;;;;;;1.40;0.60;;;;;;;;;;5056935;28;20204;-60
2023/07/14 13:24:56;;;;;;;0.85;0.80;;;;;;;;;;5056657;28;20670;-60
2023/07/14 13:27:26;;;;;;;1.17;0.70;;;;;;;;;;5068274;28;20243;-60
2023/07/14 13:29:58;;;;;;;1.10;0.80;;;;;;;;;;5069702;28;20203;-60
2023/07/14 13:32:25;;;;;;;1.95;0.77;;;;;;;;;;5069685;28;20215;-59
2023/07/14 13:34:53;;;;;;;0.93;0.90;;;;;;;;;;5061324;28;20231;-58
2023/07/14 13:37:21;;;;;;;0.80;0.80;;;;;;;;;;5051522;28;20207;-57
2023/07/14 13:39:55;;;;;;;0.80;0.80;;;;;;;;;;5056672;28;20222;-64
2023/07/14 13:42:29;;;;;;;0.60;0.60;;;;;;;;;;5049931;28;20224;-60
2023/07/14 13:44:58;;;;;;;0.68;0.68;;;;;;;;;;5059050;28;20235;-61
2023/07/14 13:47:26;;;;;;;0.98;0.98;;;;;;;;;;5062525;28;20211;-61
2023/07/14 13:49:56;;;;;;;1.38;0.88;;;;;;;;;;5058567;28;20203;-61
2023/07/14 13:52:24;;;;;;;0.60;0.60;;;;;;;;;;5058751;28;20674;-62
2023/07/14 13:54:54;;;;;;;0.75;0.75;;;;;;;;;;5056270;28;20199;-62
2023/07/14 13:57:21;;;;;;;0.80;0.80;;;;;;;;;;5048465;28;20208;-62
2023/07/14 13:59:50;;;;;;;0.80;0.80;;;;;;;;;;5048969;28;20530;-62
2023/07/14 14:02:32;;;;;;;1.42;0.80;;;;;;;;;;5068744;28;20297;-62
2023/07/14 14:05:00;;;;;;;1.08;1.08;;;;;;;;;;5066953;28;20226;-64
2023/07/14 14:07:27;;;;;;;1.02;0.88;;;;;;;;;;5064679;28;20265;-58
2023/07/14 14:09:54;;;;;;;2.55;0.90;;;;;;;;;;5055056;28;20219;-58
2023/07/14 14:12:22;;;;;;;0.85;0.85;;;;;;;;;;5063342;28;20196;-58
2023/07/14 14:14:50;;;;;;;0.80;0.80;;;;;;;;;;5062493;28;20199;-58
2023/07/14 14:17:23;;;;;;;0.93;0.93;;;;;;;;;;5052988;28;20239;-57
2023/07/14 14:19:50;;;;;;;0.80;0.80;;;;;;;;;;5059062;28;20318;-58
2023/07/14 14:22:17;;;;;;;1.02;0.93;;;;;;;;;;5059990;28;20258;-58
2023/07/14 14:24:44;;;;;;;0.70;0.60;;;;;;;;;;5050296;28;20234;-58
2023/07/14 14:27:11;;;;;;;1.15;0.70;;;;;;;;;;5067931;28;20226;-58
2023/07/14 14:29:38;;;;;;;0.70;0.70;;;;;;;;;;5060867;28;20210;-60
2023/07/14 14:32:12;;;;;;;0.90;0.90;;;;;;;;;;5049976;28;20677;-60
2023/07/14 14:34:39;;;;;;;0.90;0.90;;;;;;;;;;5046349;28;20581;-61
2023/07/14 14:37:09;;;;;;;0.98;0.98;;;;;;;;;;5058931;28;20261;-57
2023/07/14 14:39:36;;;;;;;0.88;0.82;;;;;;;;;;5053403;28;20237;-58
2023/07/14 14:42:03;;;;;;;1.00;1.00;;;;;;;;;;5064170;28;20231;-58
2023/07/14 14:44:30;;;;;;;1.08;1.08;;;;;;;;;;5066068;28;20481;-58
2023/07/14 14:46:58;;;;;;;0.73;0.73;;;;;;;;;;5067588;28;20213;-57
2023/07/14 14:49:27;;;;;;;0.80;0.80;;;;;;;;;;5065585;28;20209;-58
2023/07/14 14:51:54;;;;;;;0.90;0.90;;;;;;;;;;5055472;28;20199;-60
2023/07/14 14:54:24;;;;;;;0.88;0.88;;;;;;;;;;5066497;28;20206;-61